Time;durP1;ratioP1;P1;durP2;ratioP2;P2;SDS_P1;SDS_P2;PMS_P1;PMS_P2;Temp;Humidity;BMP_temperature;BMP_pressure;BME280_temperature;BME280_humidity;BME280_pressure;Samples;Min_cycle;Max_cycle;Signal;HPM_P1;HPM_P2
2022/11/13 00:02:31;;;;;;;2.45;0.95;;;;;;;;;;5051389;28;20044;-41
2022/11/13 00:05:15;;;;;;;2.35;1.58;;;;;;;;;;5051315;28;20126;-41
2022/11/13 00:07:59;;;;;;;1.40;1.17;;;;;;;;;;5051319;28;20039;-40
2022/11/13 00:10:42;;;;;;;1.65;1.10;;;;;;;;;;5051111;28;20067;-40
2022/11/13 00:13:26;;;;;;;3.40;1.45;;;;;;;;;;5051348;28;20407;-40
2022/11/13 00:16:12;;;;;;;1.83;1.00;;;;;;;;;;5051294;28;20094;-40
2022/11/13 00:18:55;;;;;;;2.30;1.77;;;;;;;;;;5051445;28;20083;-40
2022/11/13 00:21:39;;;;;;;4.20;1.55;;;;;;;;;;5051091;28;20102;-40
2022/11/13 00:24:23;;;;;;;2.42;1.50;;;;;;;;;;5050429;28;20040;-40
2022/11/13 00:27:07;;;;;;;3.80;1.95;;;;;;;;;;5051119;28;20166;-40
2022/11/13 00:29:51;;;;;;;3.92;2.30;;;;;;;;;;5050966;28;20114;-41
2022/11/13 00:32:36;;;;;;;5.40;1.85;;;;;;;;;;5051087;28;20040;-40
2022/11/13 00:35:20;;;;;;;1.50;1.35;;;;;;;;;;5051365;28;20036;-41
2022/11/13 00:38:04;;;;;;;1.95;1.05;;;;;;;;;;5050993;28;20071;-40
2022/11/13 00:40:48;;;;;;;4.50;1.98;;;;;;;;;;5051175;28;20036;-40
2022/11/13 00:43:32;;;;;;;4.20;2.45;;;;;;;;;;5051348;28;20047;-40
2022/11/13 00:46:16;;;;;;;4.05;2.08;;;;;;;;;;5050991;28;20111;-40
2022/11/13 00:49:00;;;;;;;0.43;0.43;;;;;;;;;;5054184;28;20196;-40
2022/11/13 00:51:44;;;;;;;2.25;1.80;;;;;;;;;;5054936;28;20159;-40
2022/11/13 00:54:27;;;;;;;0.43;0.28;;;;;;;;;;5055020;28;20048;-40
2022/11/13 00:57:11;;;;;;;1.42;1.08;;;;;;;;;;5054883;28;20047;-40
2022/11/13 00:59:55;;;;;;;2.30;1.45;;;;;;;;;;5054531;28;20544;-41
2022/11/13 01:02:39;;;;;;;2.28;1.33;;;;;;;;;;5054730;28;20039;-40
2022/11/13 01:05:23;;;;;;;6.75;2.15;;;;;;;;;;5054496;28;20106;-40
2022/11/13 01:08:07;;;;;;;3.53;2.25;;;;;;;;;;5054409;28;20182;-41
2022/11/13 01:10:52;;;;;;;3.45;2.15;;;;;;;;;;5054173;28;20064;-40
2022/11/13 01:13:36;;;;;;;3.97;2.63;;;;;;;;;;5054549;28;20060;-40
2022/11/13 01:16:21;;;;;;;5.22;3.00;;;;;;;;;;5054309;28;20052;-40
2022/11/13 01:19:04;;;;;;;6.80;3.47;;;;;;;;;;5054172;28;20442;-40
2022/11/13 01:21:48;;;;;;;4.97;2.67;;;;;;;;;;5054313;28;20442;-40
2022/11/13 01:24:32;;;;;;;3.88;2.28;;;;;;;;;;5054324;28;20513;-40
2022/11/13 01:27:16;;;;;;;5.10;2.28;;;;;;;;;;5054074;28;20036;-40
2022/11/13 01:30:00;;;;;;;3.58;2.13;;;;;;;;;;5053817;28;20056;-40
2022/11/13 01:32:44;;;;;;;11.82;2.85;;;;;;;;;;5053856;28;20040;-41
2022/11/13 01:35:28;;;;;;;5.45;2.15;;;;;;;;;;5054255;28;20075;-40
2022/11/13 01:38:12;;;;;;;3.78;2.42;;;;;;;;;;5054092;28;20501;-41
2022/11/13 01:40:56;;;;;;;3.22;2.08;;;;;;;;;;5053939;28;20571;-42
2022/11/13 01:43:40;;;;;;;6.90;3.03;;;;;;;;;;5054065;28;20637;-40
2022/11/13 01:46:44;;;;;;;4.45;2.38;;;;;;;;;;5053991;28;20142;-40
2022/11/13 01:49:28;;;;;;;7.40;2.83;;;;;;;;;;5053845;28;20541;-40
2022/11/13 01:52:14;;;;;;;4.35;2.72;;;;;;;;;;5053556;28;20124;-41
2022/11/13 01:55:01;;;;;;;3.30;2.92;;;;;;;;;;5053553;28;20063;-40
2022/11/13 01:57:44;;;;;;;4.70;1.88;;;;;;;;;;5053317;28;20127;-41
2022/11/13 02:00:28;;;;;;;2.92;2.13;;;;;;;;;;5053632;28;20447;-40
2022/11/13 02:03:12;;;;;;;3.97;2.42;;;;;;;;;;5053468;28;20094;-40
2022/11/13 02:05:56;;;;;;;4.90;2.38;;;;;;;;;;5053293;28;20395;-40
2022/11/13 02:08:41;;;;;;;2.92;1.08;;;;;;;;;;5053259;28;20036;-40
2022/11/13 02:11:25;;;;;;;4.75;2.50;;;;;;;;;;5053446;28;20135;-40
2022/11/13 02:14:10;;;;;;;4.43;2.03;;;;;;;;;;5053430;28;20528;-41
2022/11/13 02:16:57;;;;;;;6.88;3.38;;;;;;;;;;5053347;28;20132;-41
2022/11/13 02:19:45;;;;;;;4.75;2.45;;;;;;;;;;5053073;28;20095;-40
2022/11/13 02:22:41;;;;;;;6.10;3.38;;;;;;;;;;5052954;28;20048;-40
2022/11/13 02:25:26;;;;;;;3.75;2.22;;;;;;;;;;5053231;28;20107;-41
2022/11/13 02:28:10;;;;;;;3.58;2.03;;;;;;;;;;5053203;28;20092;-41
2022/11/13 02:30:54;;;;;;;6.43;3.38;;;;;;;;;;5052735;28;20060;-41
2022/11/13 02:33:38;;;;;;;7.65;3.47;;;;;;;;;;5052826;28;20051;-40
2022/11/13 02:36:24;;;;;;;5.10;1.70;;;;;;;;;;5052991;28;20052;-40
2022/11/13 02:39:09;;;;;;;3.05;2.30;;;;;;;;;;5052866;28;20166;-40
2022/11/13 02:41:52;;;;;;;4.25;2.95;;;;;;;;;;5052832;28;20094;-41
2022/11/13 02:44:36;;;;;;;4.40;2.88;;;;;;;;;;5052927;28;20044;-41
2022/11/13 02:47:20;;;;;;;0.77;0.77;;;;;;;;;;5052608;28;20456;-40
2022/11/13 02:50:05;;;;;;;5.72;3.03;;;;;;;;;;5052341;28;20487;-40
2022/11/13 02:52:48;;;;;;;2.78;1.45;;;;;;;;;;5052454;28;20040;-40
2022/11/13 02:55:33;;;;;;;6.50;3.30;;;;;;;;;;5052435;28;20091;-40
2022/11/13 02:58:17;;;;;;;8.85;3.33;;;;;;;;;;5052565;28;20040;-40
2022/11/13 03:01:02;;;;;;;4.15;3.13;;;;;;;;;;5052459;28;20175;-40
2022/11/13 03:03:46;;;;;;;4.22;2.10;;;;;;;;;;5052177;28;20040;-40
2022/11/13 03:06:30;;;;;;;3.45;2.55;;;;;;;;;;5052277;28;20047;-40
2022/11/13 03:09:14;;;;;;;3.25;2.55;;;;;;;;;;5051894;28;20060;-40
2022/11/13 03:11:58;;;;;;;3.03;2.13;;;;;;;;;;5051724;28;20118;-40
2022/11/13 03:14:42;;;;;;;3.15;1.17;;;;;;;;;;5052093;28;20044;-40
2022/11/13 03:17:26;;;;;;;4.20;1.88;;;;;;;;;;5052077;28;20411;-40
2022/11/13 03:20:10;;;;;;;5.72;2.67;;;;;;;;;;5052124;28;20383;-40
2022/11/13 03:22:54;;;;;;;1.85;1.30;;;;;;;;;;5052038;28;20075;-41
2022/11/13 03:25:38;;;;;;;6.25;3.58;;;;;;;;;;5052116;28;20098;-40
2022/11/13 03:28:22;;;;;;;1.38;1.27;;;;;;;;;;5052183;28;20043;-41
2022/11/13 03:31:06;;;;;;;2.13;1.60;;;;;;;;;;5051943;28;20069;-40
2022/11/13 03:33:52;;;;;;;5.60;2.38;;;;;;;;;;5051862;28;20044;-40
2022/11/13 03:36:36;;;;;;;1.73;1.00;;;;;;;;;;5051973;28;20040;-40
2022/11/13 03:39:21;;;;;;;3.28;1.77;;;;;;;;;;5051663;28;20037;-40
2022/11/13 03:42:05;;;;;;;2.08;1.25;;;;;;;;;;5051768;28;20502;-40
2022/11/13 03:44:49;;;;;;;5.07;2.95;;;;;;;;;;5051775;28;20394;-41
2022/11/13 03:47:33;;;;;;;3.22;2.92;;;;;;;;;;5051549;28;20564;-40
2022/11/13 03:50:17;;;;;;;4.28;2.65;;;;;;;;;;5051445;28;20067;-40
2022/11/13 03:53:01;;;;;;;2.28;1.77;;;;;;;;;;5051661;28;20055;-41
2022/11/13 03:55:46;;;;;;;2.70;1.65;;;;;;;;;;5051503;28;20094;-41
2022/11/13 03:58:30;;;;;;;5.45;2.40;;;;;;;;;;5051430;28;20036;-40
2022/11/13 04:01:14;;;;;;;2.55;1.90;;;;;;;;;;5051585;28;20064;-40
2022/11/13 04:03:58;;;;;;;3.08;1.30;;;;;;;;;;5051310;28;20090;-41
2022/11/13 04:06:41;;;;;;;3.42;1.75;;;;;;;;;;5051409;28;20510;-40
2022/11/13 04:09:26;;;;;;;1.23;0.85;;;;;;;;;;5051399;28;20106;-41
2022/11/13 04:12:09;;;;;;;2.13;1.55;;;;;;;;;;5051256;28;20048;-41
2022/11/13 04:14:53;;;;;;;3.35;2.22;;;;;;;;;;5051157;28;20067;-40
2022/11/13 04:17:37;;;;;;;2.25;2.05;;;;;;;;;;5051255;28;20067;-40
2022/11/13 04:20:21;;;;;;;2.20;1.15;;;;;;;;;;5051186;28;20083;-41
2022/11/13 04:23:10;;;;;;;3.30;2.33;;;;;;;;;;5055280;28;20044;-40
2022/11/13 04:25:54;;;;;;;2.30;1.85;;;;;;;;;;5055132;28;20075;-40
2022/11/13 04:28:37;;;;;;;4.30;1.70;;;;;;;;;;5055080;28;20048;-40
2022/11/13 04:31:21;;;;;;;2.88;1.55;;;;;;;;;;5055408;28;20462;-41
2022/11/13 04:34:06;;;;;;;2.55;1.83;;;;;;;;;;5055281;28;20035;-40
2022/11/13 04:36:50;;;;;;;3.47;1.85;;;;;;;;;;5054887;28;20079;-40
2022/11/13 04:39:34;;;;;;;2.50;1.60;;;;;;;;;;5055059;28;20043;-40
2022/11/13 04:45:22;;;;;;;2.58;1.58;;;;;;;;;;5055291;28;20028;-40
2022/11/13 04:48:06;;;;;;;4.20;2.30;;;;;;;;;;5054744;28;20542;-40
2022/11/13 04:50:50;;;;;;;2.13;1.33;;;;;;;;;;5054576;28;20083;-41
2022/11/13 04:53:34;;;;;;;2.13;1.23;;;;;;;;;;5054799;28;20044;-41
2022/11/13 04:56:18;;;;;;;4.30;1.88;;;;;;;;;;5054973;28;20051;-41
2022/11/13 04:59:01;;;;;;;5.25;1.95;;;;;;;;;;5054760;28;20183;-41
2022/11/13 05:01:45;;;;;;;2.67;1.48;;;;;;;;;;5054827;28;20438;-40
2022/11/13 05:04:29;;;;;;;3.72;1.48;;;;;;;;;;5054763;28;20402;-40
2022/11/13 05:07:13;;;;;;;2.22;1.63;;;;;;;;;;5054752;28;20094;-41
2022/11/13 05:09:57;;;;;;;2.97;1.58;;;;;;;;;;5054276;28;20075;-41
2022/11/13 05:12:41;;;;;;;3.40;2.03;;;;;;;;;;5054299;28;20067;-41
2022/11/13 05:15:25;;;;;;;2.70;1.48;;;;;;;;;;5054640;28;20048;-41
2022/11/13 05:18:09;;;;;;;2.95;1.48;;;;;;;;;;5054266;28;20064;-40
2022/11/13 05:20:53;;;;;;;2.30;1.80;;;;;;;;;;5054093;28;20040;-41
2022/11/13 05:23:37;;;;;;;1.63;1.00;;;;;;;;;;5054204;28;20060;-40
2022/11/13 05:26:21;;;;;;;3.75;2.20;;;;;;;;;;5054082;28;20044;-41
2022/11/13 05:29:05;;;;;;;4.22;2.00;;;;;;;;;;5053953;28;20098;-41
2022/11/13 05:31:49;;;;;;;3.83;1.80;;;;;;;;;;5054135;28;20043;-41
2022/11/13 05:34:33;;;;;;;2.65;1.77;;;;;;;;;;5053071;28;20098;-41
2022/11/13 05:37:17;;;;;;;4.03;1.90;;;;;;;;;;5054202;28;20040;-41
2022/11/13 05:40:02;;;;;;;3.03;2.03;;;;;;;;;;5053717;28;20562;-40
2022/11/13 05:42:46;;;;;;;2.75;2.20;;;;;;;;;;5054100;28;20075;-41
2022/11/13 05:45:30;;;;;;;3.42;2.17;;;;;;;;;;5054074;28;20132;-41
2022/11/13 05:48:14;;;;;;;1.45;0.98;;;;;;;;;;5053626;28;20111;-41
2022/11/13 05:51:06;;;;;;;4.35;2.47;;;;;;;;;;5053540;28;20564;-41
2022/11/13 05:53:51;;;;;;;3.67;2.65;;;;;;;;;;5053805;28;20086;-42
2022/11/13 05:56:35;;;;;;;4.68;1.98;;;;;;;;;;5053699;28;20543;-41
2022/11/13 05:59:19;;;;;;;4.85;2.78;;;;;;;;;;5053756;28;20075;-41
2022/11/13 06:02:03;;;;;;;4.75;3.35;;;;;;;;;;5053546;28;20560;-40
2022/11/13 06:04:48;;;;;;;4.28;2.40;;;;;;;;;;5053693;28;20036;-41
2022/11/13 06:07:32;;;;;;;6.07;2.97;;;;;;;;;;5053632;28;20152;-41
2022/11/13 06:10:16;;;;;;;5.93;2.58;;;;;;;;;;5053186;28;20147;-41
2022/11/13 06:12:59;;;;;;;7.13;3.35;;;;;;;;;;5053521;28;20564;-41
2022/11/13 06:15:43;;;;;;;5.80;2.63;;;;;;;;;;5053148;28;20125;-41
2022/11/13 06:18:27;;;;;;;4.82;2.47;;;;;;;;;;5053447;28;20040;-40
2022/11/13 06:21:13;;;;;;;3.92;2.30;;;;;;;;;;5053013;28;20419;-40
2022/11/13 06:23:58;;;;;;;5.18;2.25;;;;;;;;;;5053142;28;20403;-40
2022/11/13 06:26:42;;;;;;;19.27;4.70;;;;;;;;;;5053232;28;20186;-41
2022/11/13 06:29:26;;;;;;;2.67;1.90;;;;;;;;;;5052839;28;20159;-40
2022/11/13 06:32:10;;;;;;;5.13;2.78;;;;;;;;;;5053065;28;20815;-41
2022/11/13 06:34:54;;;;;;;5.60;3.05;;;;;;;;;;5052988;28;20052;-42
2022/11/13 06:37:38;;;;;;;3.80;2.85;;;;;;;;;;5053013;28;20113;-41
2022/11/13 06:40:22;;;;;;;3.25;1.90;;;;;;;;;;5053067;28;20115;-40
2022/11/13 06:43:06;;;;;;;4.43;2.05;;;;;;;;;;5052596;28;20052;-40
2022/11/13 06:45:50;;;;;;;5.03;3.42;;;;;;;;;;5052804;28;20056;-41
2022/11/13 06:48:34;;;;;;;3.92;2.47;;;;;;;;;;5052586;28;20489;-40
2022/11/13 06:51:20;;;;;;;3.15;2.72;;;;;;;;;;5052742;28;20506;-41
2022/11/13 06:54:04;;;;;;;6.20;2.83;;;;;;;;;;5052434;28;20526;-40
2022/11/13 06:56:47;;;;;;;3.15;1.90;;;;;;;;;;5052439;28;20063;-41
2022/11/13 06:59:31;;;;;;;4.18;2.50;;;;;;;;;;5052602;28;20130;-40
2022/11/13 07:02:15;;;;;;;4.50;2.72;;;;;;;;;;5052296;28;20054;-40
2022/11/13 07:04:59;;;;;;;5.68;2.25;;;;;;;;;;5052148;28;20556;-40
2022/11/13 07:07:43;;;;;;;3.92;2.65;;;;;;;;;;5051443;28;20502;-40
2022/11/13 07:10:27;;;;;;;2.53;1.75;;;;;;;;;;5052093;28;20052;-40
2022/11/13 07:13:11;;;;;;;3.78;2.85;;;;;;;;;;5052283;28;20163;-40
2022/11/13 07:16:00;;;;;;;4.55;2.75;;;;;;;;;;5052249;28;20067;-40
2022/11/13 07:18:53;;;;;;;6.57;3.42;;;;;;;;;;5052007;28;20039;-40
2022/11/13 07:21:37;;;;;;;6.97;3.55;;;;;;;;;;5051874;28;20051;-41
2022/11/13 07:24:21;;;;;;;6.57;3.85;;;;;;;;;;5051978;28;20138;-40
2022/11/13 07:27:05;;;;;;;7.90;3.47;;;;;;;;;;5052324;28;20044;-40
2022/11/13 07:29:49;;;;;;;4.95;2.80;;;;;;;;;;5051893;28;20136;-40
2022/11/13 07:32:33;;;;;;;4.72;3.17;;;;;;;;;;5052126;28;20060;-40
2022/11/13 07:35:17;;;;;;;5.72;3.47;;;;;;;;;;5051506;28;20090;-40
2022/11/13 07:38:01;;;;;;;7.55;3.10;;;;;;;;;;5051917;28;20403;-40
2022/11/13 07:40:45;;;;;;;7.32;3.60;;;;;;;;;;5051579;28;20186;-41
2022/11/13 07:43:29;;;;;;;7.72;3.50;;;;;;;;;;5051668;28;20040;-40
2022/11/13 07:46:13;;;;;;;6.07;3.72;;;;;;;;;;5051761;28;20099;-40
2022/11/13 07:48:57;;;;;;;6.60;3.47;;;;;;;;;;5051249;28;20064;-40
2022/11/13 07:51:41;;;;;;;5.85;3.58;;;;;;;;;;5051589;28;20411;-40
2022/11/13 07:54:25;;;;;;;5.38;2.67;;;;;;;;;;5051349;28;20048;-41
2022/11/13 07:57:09;;;;;;;5.47;3.13;;;;;;;;;;5051009;28;20063;-40
2022/11/13 07:59:53;;;;;;;3.80;2.88;;;;;;;;;;5050354;28;20036;-40
2022/11/13 08:02:37;;;;;;;5.32;2.65;;;;;;;;;;5051382;28;20075;-40
2022/11/13 08:05:22;;;;;;;3.22;2.78;;;;;;;;;;5051189;28;20086;-40
2022/11/13 08:08:06;;;;;;;5.22;3.25;;;;;;;;;;5051310;28;20047;-40
2022/11/13 08:10:50;;;;;;;5.07;3.65;;;;;;;;;;5051247;28;20160;-41
2022/11/13 08:13:34;;;;;;;8.15;3.95;;;;;;;;;;5050727;28;20048;-41
2022/11/13 08:16:19;;;;;;;4.10;2.80;;;;;;;;;;5051581;28;20091;-41
2022/11/13 08:19:03;;;;;;;3.40;2.47;;;;;;;;;;5051513;28;20044;-40
2022/11/13 08:21:47;;;;;;;7.25;3.30;;;;;;;;;;5051465;28;20036;-40
2022/11/13 08:24:31;;;;;;;6.13;2.78;;;;;;;;;;5051228;28;20064;-41
2022/11/13 08:27:15;;;;;;;6.53;3.45;;;;;;;;;;5051259;28;20036;-41
2022/11/13 08:29:59;;;;;;;6.80;3.95;;;;;;;;;;5051066;28;20067;-41
2022/11/13 08:32:43;;;;;;;5.13;2.55;;;;;;;;;;5051205;28;20087;-41
2022/11/13 08:35:27;;;;;;;3.97;1.95;;;;;;;;;;5051171;28;20032;-43
2022/11/13 08:38:12;;;;;;;9.80;3.33;;;;;;;;;;5051248;28;20047;-41
2022/11/13 08:40:57;;;;;;;6.00;3.92;;;;;;;;;;5050962;28;20453;-41
2022/11/13 08:43:41;;;;;;;4.43;3.35;;;;;;;;;;5051310;28;20039;-41
2022/11/13 08:46:25;;;;;;;6.60;3.47;;;;;;;;;;5050984;28;20134;-41
2022/11/13 08:49:10;;;;;;;3.35;2.55;;;;;;;;;;5050792;28;20411;-41
2022/11/13 08:51:54;;;;;;;3.13;2.15;;;;;;;;;;5050817;28;20036;-40
2022/11/13 08:54:38;;;;;;;10.00;3.10;;;;;;;;;;5050980;28;20036;-40
2022/11/13 08:57:22;;;;;;;5.53;3.30;;;;;;;;;;5050937;28;20099;-41
2022/11/13 09:00:06;;;;;;;5.07;3.03;;;;;;;;;;5050695;28;20043;-41
2022/11/13 09:02:54;;;;;;;5.93;3.35;;;;;;;;;;5050885;28;20125;-40
2022/11/13 09:05:38;;;;;;;5.47;3.40;;;;;;;;;;5050840;28;20352;-41
2022/11/13 09:08:22;;;;;;;4.13;3.03;;;;;;;;;;5051963;28;20052;-40
2022/11/13 09:11:07;;;;;;;5.95;2.90;;;;;;;;;;5054302;28;20102;-40
2022/11/13 09:13:51;;;;;;;4.63;2.95;;;;;;;;;;5054961;28;20039;-41
2022/11/13 09:16:34;;;;;;;6.97;3.30;;;;;;;;;;5054381;28;20132;-41
2022/11/13 09:19:19;;;;;;;4.88;2.78;;;;;;;;;;5054647;28;20035;-41
2022/11/13 09:22:03;;;;;;;3.35;2.40;;;;;;;;;;5054369;28;20032;-41
2022/11/13 09:24:47;;;;;;;5.53;2.97;;;;;;;;;;5054221;28;20040;-41
2022/11/13 09:27:31;;;;;;;5.60;3.38;;;;;;;;;;5054419;28;20395;-41
2022/11/13 09:30:15;;;;;;;5.15;3.55;;;;;;;;;;5054013;28;20450;-40
2022/11/13 09:32:59;;;;;;;4.82;3.60;;;;;;;;;;5053950;28;20095;-40
2022/11/13 09:35:44;;;;;;;6.68;2.88;;;;;;;;;;5053989;28;20131;-40
2022/11/13 09:38:31;;;;;;;5.28;3.33;;;;;;;;;;5053986;28;20120;-40
2022/11/13 09:41:19;;;;;;;7.65;3.72;;;;;;;;;;5053744;28;20048;-40
2022/11/13 09:44:24;;;;;;;5.18;3.28;;;;;;;;;;5053747;28;20517;-41
2022/11/13 09:47:29;;;;;;;3.80;2.55;;;;;;;;;;5053141;28;20068;-41
2022/11/13 09:50:16;;;;;;;4.53;2.25;;;;;;;;;;5053590;28;20110;-40
2022/11/13 09:53:02;;;;;;;4.30;2.72;;;;;;;;;;5053632;28;20040;-40
2022/11/13 09:56:09;;;;;;;6.25;2.95;;;;;;;;;;5053856;28;20091;-41
2022/11/13 09:59:06;;;;;;;5.53;2.90;;;;;;;;;;5053532;28;20040;-41
2022/11/13 10:01:54;;;;;;;5.55;2.00;;;;;;;;;;5053458;28;20113;-41
2022/11/13 10:04:52;;;;;;;5.00;3.22;;;;;;;;;;5053370;28;20048;-41
2022/11/13 10:07:46;;;;;;;3.78;2.80;;;;;;;;;;5053415;28;20048;-41
2022/11/13 10:10:30;;;;;;;3.97;3.08;;;;;;;;;;5053160;28;20051;-41
2022/11/13 10:13:16;;;;;;;4.03;2.85;;;;;;;;;;5053347;28;20039;-41
2022/11/13 10:16:10;;;;;;;7.43;2.97;;;;;;;;;;5053453;28;20036;-41
2022/11/13 10:18:58;;;;;;;7.85;2.83;;;;;;;;;;5052751;28;20063;-40
2022/11/13 10:21:42;;;;;;;5.88;3.33;;;;;;;;;;5053381;28;20091;-41
2022/11/13 10:24:40;;;;;;;4.97;2.92;;;;;;;;;;5053320;28;20039;-40
2022/11/13 10:27:24;;;;;;;4.85;3.17;;;;;;;;;;5053112;28;20035;-41
2022/11/13 10:30:15;;;;;;;3.42;2.33;;;;;;;;;;5052867;28;20052;-41
2022/11/13 10:33:05;;;;;;;4.32;2.78;;;;;;;;;;5052757;28;20048;-40
2022/11/13 10:35:49;;;;;;;3.70;2.33;;;;;;;;;;5052894;28;20056;-41
2022/11/13 10:38:43;;;;;;;3.95;2.67;;;;;;;;;;5052828;28;20091;-41
2022/11/13 10:41:27;;;;;;;4.60;2.35;;;;;;;;;;5053054;28;20032;-40
2022/11/13 10:44:22;;;;;;;5.32;3.40;;;;;;;;;;5052661;28;20453;-41
2022/11/13 10:47:29;;;;;;;4.22;2.72;;;;;;;;;;5052518;28;20044;-41
2022/11/13 10:50:20;;;;;;;3.45;1.88;;;;;;;;;;5052214;28;20261;-40
2022/11/13 10:53:13;;;;;;;4.00;2.05;;;;;;;;;;5052410;28;20154;-41
2022/11/13 10:55:58;;;;;;;3.05;2.17;;;;;;;;;;5052703;28;20063;-41
2022/11/13 10:58:41;;;;;;;2.90;2.47;;;;;;;;;;5052455;28;20119;-41
2022/11/13 11:01:26;;;;;;;4.93;3.08;;;;;;;;;;5052460;28;20036;-40
2022/11/13 11:04:12;;;;;;;3.88;2.45;;;;;;;;;;5052538;28;20170;-41
2022/11/13 11:07:03;;;;;;;2.95;2.10;;;;;;;;;;5052160;28;20106;-41
2022/11/13 11:09:49;;;;;;;4.45;2.70;;;;;;;;;;5052131;28;20083;-41
2022/11/13 11:12:33;;;;;;;1.80;1.48;;;;;;;;;;5052492;28;20204;-41
2022/11/13 11:15:21;;;;;;;2.72;2.45;;;;;;;;;;5052011;28;20044;-41
2022/11/13 11:18:11;;;;;;;3.35;1.77;;;;;;;;;;5052291;28;20514;-41
2022/11/13 11:20:57;;;;;;;5.78;1.77;;;;;;;;;;5052194;28;20036;-41
2022/11/13 11:23:59;;;;;;;3.70;1.45;;;;;;;;;;5052153;28;20102;-41
2022/11/13 11:26:46;;;;;;;3.88;2.17;;;;;;;;;;5051931;28;20075;-41
2022/11/13 11:29:59;;;;;;;2.00;1.75;;;;;;;;;;5051997;28;20099;-40
2022/11/13 11:32:53;;;;;;;3.83;1.98;;;;;;;;;;5051219;28;20094;-41
2022/11/13 11:36:09;;;;;;;3.38;1.83;;;;;;;;;;5051978;28;20606;-40
2022/11/13 11:38:53;;;;;;;1.52;1.40;;;;;;;;;;5050819;28;20094;-41
2022/11/13 11:41:42;;;;;;;2.67;2.00;;;;;;;;;;5051687;28;20066;-41
2022/11/13 11:44:30;;;;;;;2.78;2.10;;;;;;;;;;5051609;28;20056;-41
2022/11/13 11:47:15;;;;;;;2.55;1.48;;;;;;;;;;5050563;28;20063;-40
2022/11/13 11:49:59;;;;;;;3.17;2.17;;;;;;;;;;5051528;28;20498;-40
2022/11/13 11:52:55;;;;;;;2.83;2.05;;;;;;;;;;5051467;28;20091;-41
2022/11/13 11:55:58;;;;;;;2.35;1.65;;;;;;;;;;5051848;28;20044;-41
2022/11/13 11:58:51;;;;;;;2.85;1.77;;;;;;;;;;5051495;28;20117;-41
2022/11/13 12:01:53;;;;;;;2.92;2.10;;;;;;;;;;5051625;28;20526;-40
2022/11/13 12:04:40;;;;;;;4.47;2.67;;;;;;;;;;5051608;28;20068;-41
2022/11/13 12:07:30;;;;;;;3.00;2.35;;;;;;;;;;5051401;28;20047;-41
2022/11/13 12:10:14;;;;;;;3.72;2.63;;;;;;;;;;5051428;28;20068;-41
2022/11/13 12:12:58;;;;;;;5.68;2.63;;;;;;;;;;5051501;28;20502;-41
2022/11/13 12:15:47;;;;;;;3.45;2.50;;;;;;;;;;5051391;28;20094;-40
2022/11/13 12:18:50;;;;;;;4.30;1.70;;;;;;;;;;5051287;28;20040;-41
2022/11/13 12:21:43;;;;;;;6.55;2.15;;;;;;;;;;5051503;28;20064;-41
2022/11/13 12:24:46;;;;;;;3.15;2.35;;;;;;;;;;5051301;28;20044;-41
2022/11/13 12:27:37;;;;;;;3.50;2.07;;;;;;;;;;5051490;28;20047;-41
2022/11/13 12:30:23;;;;;;;2.88;1.88;;;;;;;;;;5051492;28;20125;-41
2022/11/13 12:33:13;;;;;;;2.72;2.25;;;;;;;;;;5051310;28;20043;-41
2022/11/13 12:35:57;;;;;;;6.25;3.15;;;;;;;;;;5051063;28;20052;-41
2022/11/13 12:38:44;;;;;;;3.83;2.33;;;;;;;;;;5051369;28;20086;-40
2022/11/13 12:41:28;;;;;;;4.55;2.78;;;;;;;;;;5051227;28;20056;-41
2022/11/13 12:44:18;;;;;;;4.82;2.20;;;;;;;;;;5054895;28;20043;-40
2022/11/13 12:47:02;;;;;;;3.22;2.25;;;;;;;;;;5054844;28;20044;-41
2022/11/13 12:49:46;;;;;;;5.35;3.15;;;;;;;;;;5054901;28;20098;-41
2022/11/13 12:52:29;;;;;;;4.85;2.53;;;;;;;;;;5054887;28;20058;-40
2022/11/13 12:55:27;;;;;;;4.55;2.72;;;;;;;;;;5054801;28;20170;-41
2022/11/13 12:58:18;;;;;;;2.42;2.08;;;;;;;;;;5054885;28;20076;-40
2022/11/13 13:01:05;;;;;;;5.78;3.20;;;;;;;;;;5054729;28;20510;-40
2022/11/13 13:04:16;;;;;;;5.15;3.08;;;;;;;;;;5054856;28;20136;-41
2022/11/13 13:06:59;;;;;;;6.28;2.40;;;;;;;;;;5053795;28;20044;-41
2022/11/13 13:09:43;;;;;;;5.18;2.80;;;;;;;;;;5054257;28;20078;-41
2022/11/13 13:12:42;;;;;;;4.18;3.05;;;;;;;;;;5054378;28;20087;-40
2022/11/13 13:15:27;;;;;;;5.38;3.28;;;;;;;;;;5054517;28;20067;-40
2022/11/13 13:18:23;;;;;;;5.38;3.38;;;;;;;;;;5054537;28;20434;-41
2022/11/13 13:21:10;;;;;;;2.90;2.20;;;;;;;;;;5054426;28;20183;-40
2022/11/13 13:24:05;;;;;;;4.63;3.28;;;;;;;;;;5054384;28;20064;-41
2022/11/13 13:26:48;;;;;;;3.85;2.65;;;;;;;;;;5054394;28;20102;-41
2022/11/13 13:29:32;;;;;;;6.07;3.78;;;;;;;;;;5054200;28;20123;-41
2022/11/13 13:32:22;;;;;;;6.47;3.53;;;;;;;;;;5054224;28;20087;-40
2022/11/13 13:35:13;;;;;;;6.20;2.65;;;;;;;;;;5054115;28;20399;-41
2022/11/13 13:38:13;;;;;;;6.15;3.13;;;;;;;;;;5054061;28;20407;-41
2022/11/13 13:41:09;;;;;;;3.92;2.38;;;;;;;;;;5053973;28;20036;-40
2022/11/13 13:44:05;;;;;;;4.03;2.55;;;;;;;;;;5053771;28;20170;-41
2022/11/13 13:46:50;;;;;;;4.80;2.70;;;;;;;;;;5053781;28;20044;-41
2022/11/13 13:49:34;;;;;;;3.42;2.20;;;;;;;;;;5053604;28;20186;-41
2022/11/13 13:52:22;;;;;;;9.63;3.28;;;;;;;;;;5053488;28;20498;-41
2022/11/13 13:55:06;;;;;;;4.85;3.05;;;;;;;;;;5052914;28;20052;-41
2022/11/13 13:57:51;;;;;;;4.22;2.42;;;;;;;;;;5053640;28;20441;-40
2022/11/13 14:00:34;;;;;;;3.95;2.88;;;;;;;;;;5053450;28;20041;-41
2022/11/13 14:03:20;;;;;;;3.33;2.17;;;;;;;;;;5053604;28;20445;-40
2022/11/13 14:06:13;;;;;;;6.45;3.25;;;;;;;;;;5053580;28;20051;-40
2022/11/13 14:09:07;;;;;;;9.25;3.03;;;;;;;;;;5053326;28;20131;-41
2022/11/13 14:12:02;;;;;;;4.72;3.20;;;;;;;;;;5053348;28;20059;-40
2022/11/13 14:14:47;;;;;;;6.82;2.88;;;;;;;;;;5053527;28;20035;-40
2022/11/13 14:17:32;;;;;;;4.00;2.95;;;;;;;;;;5053481;28;20051;-42
2022/11/13 14:20:17;;;;;;;5.80;3.50;;;;;;;;;;5052954;28;20506;-40
2022/11/13 14:23:01;;;;;;;5.30;2.67;;;;;;;;;;5053123;28;20111;-41
2022/11/13 14:25:45;;;;;;;4.55;3.00;;;;;;;;;;5053053;28;20040;-41
2022/11/13 14:28:31;;;;;;;3.42;2.25;;;;;;;;;;5053256;28;20090;-41
2022/11/13 14:31:15;;;;;;;5.40;3.20;;;;;;;;;;5052802;28;20059;-41
2022/11/13 14:34:14;;;;;;;3.80;3.03;;;;;;;;;;5052972;28;20471;-41
2022/11/13 14:37:16;;;;;;;4.32;2.97;;;;;;;;;;5052993;28;20051;-41
2022/11/13 14:40:12;;;;;;;4.50;2.63;;;;;;;;;;5052947;28;20502;-41
2022/11/13 14:42:57;;;;;;;4.40;2.90;;;;;;;;;;5052688;28;20087;-41
2022/11/13 14:45:51;;;;;;;5.43;2.67;;;;;;;;;;5052957;28;20549;-41
2022/11/13 14:48:35;;;;;;;;;;;;;;;;;;5052971;28;20514;-41
2022/11/13 14:51:26;;;;;;;4.55;3.00;;;;;;;;;;5052377;28;19975;-40
2022/11/13 14:54:33;;;;;;;9.90;3.40;;;;;;;;;;5052613;28;20052;-40
2022/11/13 14:57:17;;;;;;;15.10;4.47;;;;;;;;;;5052304;28;20095;-40
2022/11/13 15:00:09;;;;;;;5.13;2.40;;;;;;;;;;5052496;28;20091;-40
2022/11/13 15:02:53;;;;;;;4.68;3.03;;;;;;;;;;5052529;28;20085;-41
2022/11/13 15:05:37;;;;;;;4.53;3.17;;;;;;;;;;5051485;28;20051;-43
2022/11/13 15:08:21;;;;;;;5.55;3.20;;;;;;;;;;5052173;28;20052;-40
2022/11/13 15:11:05;;;;;;;5.75;3.17;;;;;;;;;;5051936;28;20048;-40
2022/11/13 15:13:49;;;;;;;5.95;3.45;;;;;;;;;;5052405;28;20552;-41
2022/11/13 15:16:34;;;;;;;4.15;2.83;;;;;;;;;;5052232;28;20090;-41
2022/11/13 15:19:29;;;;;;;5.25;2.97;;;;;;;;;;5052215;28;20449;-41
2022/11/13 15:22:13;;;;;;;5.88;2.97;;;;;;;;;;5051982;28;20637;-40
2022/11/13 15:24:57;;;;;;;3.53;2.63;;;;;;;;;;5051138;28;20094;-41
2022/11/13 15:27:41;;;;;;;5.57;3.20;;;;;;;;;;5052166;28;20047;-41
2022/11/13 15:30:25;;;;;;;5.63;2.97;;;;;;;;;;5051693;28;20113;-40
2022/11/13 15:33:13;;;;;;;3.38;2.30;;;;;;;;;;5051905;28;20039;-40
2022/11/13 15:35:57;;;;;;;7.30;3.33;;;;;;;;;;5051968;28;20102;-41
2022/11/13 15:38:41;;;;;;;5.32;2.67;;;;;;;;;;5051691;28;20099;-40
2022/11/13 15:41:26;;;;;;;4.13;2.90;;;;;;;;;;5051765;28;20040;-40
2022/11/13 15:44:12;;;;;;;6.90;3.67;;;;;;;;;;5051794;28;20481;-41
2022/11/13 15:46:55;;;;;;;8.13;3.17;;;;;;;;;;5051440;28;20513;-40
2022/11/13 15:49:39;;;;;;;4.65;3.17;;;;;;;;;;5051717;28;20671;-41
2022/11/13 15:52:24;;;;;;;5.78;3.33;;;;;;;;;;5051703;28;20098;-40
2022/11/13 15:55:29;;;;;;;4.43;3.15;;;;;;;;;;5051694;28;20044;-41
2022/11/13 15:58:15;;;;;;;5.95;3.00;;;;;;;;;;5051683;28;20039;-41
2022/11/13 16:00:59;;;;;;;3.67;2.90;;;;;;;;;;5051598;28;20043;-41
2022/11/13 16:03:43;;;;;;;21.02;4.03;;;;;;;;;;5051407;28;20498;-40
2022/11/13 16:06:27;;;;;;;5.32;3.42;;;;;;;;;;5051291;28;20059;-40
2022/11/13 16:09:12;;;;;;;2.85;2.22;;;;;;;;;;5051150;28;20039;-41
2022/11/13 16:11:55;;;;;;;5.40;3.38;;;;;;;;;;5051630;28;20036;-41
2022/11/13 16:14:39;;;;;;;5.78;3.83;;;;;;;;;;5051192;28;20075;-41
2022/11/13 16:17:23;;;;;;;4.53;4.10;;;;;;;;;;5052304;28;20083;-41
2022/11/13 16:20:09;;;;;;;3.75;2.85;;;;;;;;;;5055331;28;20084;-40
2022/11/13 16:22:53;;;;;;;8.52;4.18;;;;;;;;;;5055575;28;20124;-40
2022/11/13 16:25:37;;;;;;;7.72;3.95;;;;;;;;;;5055541;28;20502;-41
2022/11/13 16:28:21;;;;;;;3.78;3.25;;;;;;;;;;5054447;28;20044;-40
2022/11/13 16:31:05;;;;;;;6.53;3.40;;;;;;;;;;5055044;28;20051;-40
2022/11/13 16:33:52;;;;;;;5.63;3.80;;;;;;;;;;5055156;28;20549;-40
2022/11/13 16:36:36;;;;;;;10.43;4.00;;;;;;;;;;5055039;28;20043;-40
2022/11/13 16:39:20;;;;;;;4.72;2.88;;;;;;;;;;5054988;28;20040;-40
2022/11/13 16:42:04;;;;;;;5.30;3.63;;;;;;;;;;5054876;28;20556;-41